createdAt,value
2023-01-21T00:00:48.194Z,68.46
2023-01-21T00:03:50.820Z,68.36
2023-01-21T00:06:53.435Z,68.29
2023-01-21T00:09:57.373Z,67.37
2023-01-21T00:12:59.814Z,67.15
2023-01-21T00:16:02.439Z,67.14
2023-01-21T00:19:05.245Z,67.14
2023-01-21T00:22:08.053Z,67.03
2023-01-21T00:25:12.229Z,66.85
2023-01-21T00:28:14.812Z,66.58
2023-01-21T00:31:17.538Z,66.73
2023-01-21T00:34:20.096Z,66.05
2023-01-21T00:37:22.655Z,66.12
2023-01-21T00:40:27.245Z,66.16
2023-01-21T00:43:30.353Z,65.67
2023-01-21T00:46:33.095Z,65.05
2023-01-21T00:49:35.926Z,64.53
2023-01-21T00:52:38.881Z,64.96
2023-01-21T00:55:42.760Z,64.66
2023-01-21T00:58:45.496Z,64.31
2023-01-21T01:01:48.241Z,63.80
2023-01-21T01:04:50.840Z,64.08
2023-01-21T01:07:53.757Z,64.10
2023-01-21T01:10:57.591Z,64.55
2023-01-21T01:14:00.469Z,63.71
2023-01-21T01:17:03.066Z,63.93
2023-01-21T01:20:06.785Z,64.31
2023-01-21T01:23:09.427Z,64.63
2023-01-21T01:26:15.563Z,63.92
2023-01-21T01:29:18.588Z,64.30
2023-01-21T01:32:21.322Z,64.63
2023-01-21T01:35:24.139Z,64.86
2023-01-21T01:38:26.808Z,64.96
2023-01-21T01:41:32.692Z,65.32
2023-01-21T01:44:56.409Z,65.43
2023-01-21T01:48:01.699Z,66.41
2023-01-21T01:51:07.337Z,67.29
2023-01-21T01:54:11.693Z,67.17
2023-01-21T01:57:18.154Z,66.89
2023-01-21T02:00:21.840Z,67.97
2023-01-21T02:03:41.983Z,68.86
2023-01-21T02:06:45.720Z,68.28
2023-01-21T02:09:48.497Z,67.46
2023-01-21T02:12:52.707Z,68.10
2023-01-21T02:16:04.708Z,68.86
2023-01-21T02:19:25.896Z,68.19
2023-01-21T02:22:31.177Z,68.09
2023-01-21T02:25:57.134Z,69.58
2023-01-21T02:29:21.473Z,71.09
2023-01-21T02:32:30.094Z,70.82
2023-01-21T02:35:40.295Z,70.50
2023-01-21T02:38:47.828Z,70.79
2023-01-21T02:42:00.490Z,71.44
2023-01-21T02:45:11.327Z,71.74
2023-01-21T02:48:17.148Z,71.02
2023-01-21T02:51:21.123Z,71.04
2023-01-21T02:54:48.533Z,70.51
2023-01-21T02:57:53.039Z,70.98
2023-01-21T03:00:59.381Z,71.78
2023-01-21T03:04:26.372Z,72.62
2023-01-21T03:07:33.419Z,73.34
2023-01-21T03:10:40.444Z,72.88
2023-01-21T03:14:02.466Z,73.55
2023-01-21T03:17:09.510Z,73.46
2023-01-21T03:20:14.556Z,73.22
2023-01-21T03:23:21.703Z,74.34
2023-01-21T03:26:27.595Z,73.86
2023-01-21T03:29:31.573Z,72.82
2023-01-21T03:32:35.661Z,73.37
2023-01-21T03:35:41.605Z,73.17
2023-01-21T03:38:49.671Z,74.03
2023-01-21T03:41:52.359Z,74.07
2023-01-21T03:44:55.189Z,74.30
2023-01-21T03:48:00.697Z,75.26
2023-01-21T03:51:07.633Z,75.09
2023-01-21T03:54:11.995Z,74.66
2023-01-21T03:57:14.490Z,74.83
2023-01-21T04:00:18.581Z,73.98
2023-01-21T04:03:21.378Z,74.10
2023-01-21T04:06:24.669Z,74.50
2023-01-21T04:09:28.906Z,74.40
2023-01-21T04:12:31.443Z,74.42
2023-01-21T04:15:34.045Z,74.90
2023-01-21T04:18:36.700Z,74.49
2023-01-21T04:21:39.429Z,75.20
2023-01-21T04:24:43.561Z,74.45
2023-01-21T04:27:46.227Z,74.76
2023-01-21T04:30:49.132Z,74.99
2023-01-21T04:33:52.985Z,74.98
2023-01-21T04:36:56.063Z,74.48
2023-01-21T04:39:59.934Z,74.84
2023-01-21T04:43:02.654Z,74.62
2023-01-21T04:46:06.479Z,73.89
2023-01-21T04:49:08.916Z,74.29
2023-01-21T04:52:11.697Z,74.22
2023-01-21T04:55:15.757Z,74.12
2023-01-21T04:58:18.296Z,74.72
2023-01-21T05:01:20.963Z,74.47
2023-01-21T05:04:23.544Z,75.78
2023-01-21T05:07:26.285Z,76.28
2023-01-21T05:10:30.283Z,76.02
2023-01-21T05:13:32.883Z,76.34
2023-01-21T05:16:35.482Z,75.89
2023-01-21T05:19:38.466Z,75.96
2023-01-21T05:22:41.285Z,76.73
2023-01-21T05:25:45.227Z,76.92
2023-01-21T05:28:47.919Z,76.81
2023-01-21T05:31:50.778Z,77.14
2023-01-21T05:34:53.416Z,76.89
2023-01-21T05:37:56.117Z,77.19
2023-01-21T05:41:01.037Z,77.38
2023-01-21T05:44:03.587Z,77.57
2023-01-21T05:47:07.652Z,77.92
2023-01-21T05:50:11.577Z,77.62
2023-01-21T05:53:14.379Z,78.33
2023-01-21T05:56:18.334Z,78.65
2023-01-21T05:59:20.929Z,78.18
2023-01-21T06:02:23.724Z,78.56
2023-01-21T06:05:26.467Z,79.57
2023-01-21T06:08:29.136Z,79.47
2023-01-21T06:11:33.798Z,77.21
2023-01-21T06:14:38.649Z,77.00
2023-01-21T06:17:41.715Z,76.50
2023-01-21T06:20:44.324Z,75.49
2023-01-21T06:23:47.343Z,74.83
2023-01-21T06:26:51.323Z,73.92
2023-01-21T06:29:53.935Z,74.05
2023-01-21T06:32:56.538Z,73.70
2023-01-21T06:35:59.321Z,73.77
2023-01-21T06:39:01.910Z,73.98
2023-01-21T06:42:06.029Z,74.01
2023-01-21T06:45:09.479Z,74.72
2023-01-21T06:48:12.193Z,74.57
2023-01-21T06:51:15.289Z,74.74
2023-01-21T06:54:17.924Z,75.55
2023-01-21T06:57:21.974Z,74.26
2023-01-21T07:00:24.551Z,74.13
2023-01-21T07:03:27.399Z,73.64
2023-01-21T07:06:30.443Z,74.16
2023-01-21T07:09:33.612Z,74.41
2023-01-21T07:12:37.764Z,73.70
2023-01-21T07:15:40.970Z,73.58
2023-01-21T07:18:43.743Z,73.54
2023-01-21T07:21:46.389Z,73.15
2023-01-21T07:24:49.069Z,72.74
2023-01-21T07:27:53.228Z,73.18
2023-01-21T07:30:56.492Z,73.12
2023-01-21T07:33:59.249Z,72.25
2023-01-21T07:37:02.085Z,72.46
2023-01-21T07:40:05.446Z,72.33
2023-01-21T07:43:09.889Z,72.52
2023-01-21T07:46:12.604Z,72.33
2023-01-21T07:49:17.455Z,71.99
2023-01-21T07:52:20.297Z,72.11
2023-01-21T07:55:23.209Z,71.50
2023-01-21T07:58:27.499Z,71.27
2023-01-21T08:01:32.468Z,70.77
2023-01-21T08:04:35.010Z,70.56
2023-01-21T08:07:38.432Z,71.45
2023-01-21T08:10:41.216Z,70.88
2023-01-21T08:14:07.179Z,70.51
2023-01-21T08:17:09.973Z,69.53
2023-01-21T08:20:14.166Z,68.63
2023-01-21T08:23:17.335Z,68.68
2023-01-21T08:26:20.059Z,68.85
2023-01-21T08:29:24.187Z,67.76
2023-01-21T08:32:26.963Z,68.84
2023-01-21T08:35:29.745Z,68.72
2023-01-21T08:38:32.363Z,68.19
2023-01-21T08:41:35.271Z,67.92
2023-01-21T08:44:39.273Z,67.73
2023-01-21T08:47:42.075Z,66.73
2023-01-21T08:50:44.851Z,66.97
2023-01-21T08:53:49.875Z,65.92
2023-01-21T08:56:52.506Z,65.94
2023-01-21T08:59:56.423Z,65.83
2023-01-21T09:02:59.892Z,65.55
2023-01-21T09:06:02.839Z,66.68
2023-01-21T09:09:05.520Z,66.28
2023-01-21T09:12:08.856Z,67.13
2023-01-21T09:15:12.906Z,66.20
2023-01-21T09:18:15.736Z,64.82
2023-01-21T09:21:18.559Z,63.46
2023-01-21T09:24:21.238Z,63.48
2023-01-21T09:27:27.253Z,63.14
2023-01-21T09:30:31.326Z,62.11
2023-01-21T09:33:36.508Z,62.35
2023-01-21T09:36:39.942Z,61.92
2023-01-21T09:39:42.801Z,61.76
2023-01-21T09:42:47.266Z,61.81
2023-01-21T09:45:51.888Z,61.05
2023-01-21T09:48:55.552Z,60.64
2023-01-21T09:52:07.285Z,61.30
2023-01-21T09:55:16.728Z,62.03
2023-01-21T09:58:23.903Z,62.59
2023-01-21T10:01:32.767Z,62.14
2023-01-21T10:04:42.121Z,63.19
2023-01-21T10:07:47.184Z,63.80
2023-01-21T10:10:52.636Z,64.50
2023-01-21T10:14:09.180Z,63.38
2023-01-21T10:17:16.951Z,63.48
2023-01-21T10:20:24.465Z,64.21
2023-01-21T10:23:28.902Z,64.29
2023-01-21T10:26:33.013Z,63.79
2023-01-21T10:29:36.820Z,64.07
2023-01-21T10:32:40.564Z,65.30
2023-01-21T10:35:53.989Z,64.82
2023-01-21T10:39:03.090Z,64.35
2023-01-21T10:42:17.310Z,63.90
2023-01-21T10:45:23.100Z,64.16
2023-01-21T10:48:34.546Z,64.99
2023-01-21T10:51:41.773Z,64.39
2023-01-21T10:54:49.035Z,64.23
2023-01-21T10:57:56.770Z,64.33
2023-01-21T11:01:01.921Z,63.98
2023-01-21T11:04:12.528Z,63.88
2023-01-21T11:07:19.222Z,63.13
2023-01-21T11:10:24.123Z,65.02
2023-01-21T11:13:26.704Z,64.42
2023-01-21T11:16:35.202Z,64.98
2023-01-21T11:19:39.200Z,64.94
2023-01-21T11:22:45.636Z,64.78
2023-01-21T11:25:49.490Z,65.68
2023-01-21T11:29:05.094Z,65.92
2023-01-21T11:32:19.665Z,66.49
2023-01-21T11:35:24.355Z,66.85
2023-01-21T11:38:33.747Z,67.40
2023-01-21T11:41:37.468Z,67.25
2023-01-21T11:44:52.186Z,66.62
2023-01-21T11:47:55.816Z,67.13
2023-01-21T11:51:08.885Z,65.49
2023-01-21T11:54:14.898Z,65.91
2023-01-21T11:57:24.132Z,65.78
2023-01-21T12:00:28.283Z,65.40
2023-01-21T12:03:33.951Z,65.08
2023-01-21T12:06:37.987Z,65.21
2023-01-21T12:09:40.820Z,65.24
2023-01-21T12:12:53.037Z,64.84
2023-01-21T12:16:28.593Z,65.56
2023-01-21T12:19:42.776Z,66.06
2023-01-21T12:22:49.666Z,66.39
2023-01-21T12:25:58.006Z,66.38
2023-01-21T12:29:10.827Z,67.16
2023-01-21T12:32:16.876Z,67.60
2023-01-21T12:35:25.610Z,68.02
2023-01-21T12:38:32.613Z,67.78
2023-01-21T12:41:35.778Z,66.97
2023-01-21T12:44:43.764Z,67.33
2023-01-21T12:47:51.383Z,67.08
2023-01-21T12:50:58.005Z,66.58
2023-01-21T12:54:09.763Z,66.53
2023-01-21T12:57:17.682Z,65.70
2023-01-21T13:00:23.621Z,65.15
2023-01-21T13:03:30.724Z,66.20
2023-01-21T13:06:52.294Z,65.89
2023-01-21T13:10:04.578Z,66.75
2023-01-21T13:13:13.321Z,66.00
2023-01-21T13:16:16.263Z,67.39
2023-01-21T13:19:18.838Z,66.96
2023-01-21T13:22:33.468Z,67.73
2023-01-21T13:25:44.413Z,69.23
2023-01-21T13:28:50.596Z,70.11
2023-01-21T13:32:14.444Z,71.02
2023-01-21T13:35:29.440Z,70.20
2023-01-21T13:38:35.012Z,70.11
2023-01-21T13:41:47.965Z,70.34
2023-01-21T13:45:25.665Z,69.67
2023-01-21T13:48:45.638Z,69.64
2023-01-21T13:51:55.965Z,69.84
2023-01-21T13:55:11.441Z,70.35
2023-01-21T13:58:16.844Z,70.92
2023-01-21T14:01:21.447Z,71.45
2023-01-21T14:04:28.332Z,71.59
2023-01-21T14:07:34.441Z,70.79
2023-01-21T14:10:40.576Z,70.76
2023-01-21T14:14:00.941Z,70.50
2023-01-21T14:17:12.717Z,70.06
2023-01-21T14:20:49.039Z,70.02
2023-01-21T14:24:15.422Z,69.89
2023-01-21T14:27:26.088Z,70.10
2023-01-21T14:30:32.497Z,69.56
2023-01-21T14:33:44.099Z,70.82
2023-01-21T14:36:54.085Z,70.37
2023-01-21T14:40:04.411Z,70.65
2023-01-21T14:43:07.053Z,70.46
2023-01-21T14:46:32.982Z,69.86
2023-01-21T14:49:43.274Z,69.30
2023-01-21T14:52:46.925Z,69.38
2023-01-21T14:56:28.894Z,70.31
2023-01-21T14:59:35.027Z,70.47
2023-01-21T15:02:43.039Z,70.66
2023-01-21T15:05:50.408Z,70.28
2023-01-21T15:08:56.454Z,70.63
2023-01-21T15:12:01.945Z,70.27
2023-01-21T15:15:30.998Z,70.29
2023-01-21T15:18:37.732Z,70.32
2023-01-21T15:21:44.711Z,71.50
2023-01-21T15:25:21.029Z,70.97
2023-01-21T15:28:43.671Z,70.68
2023-01-21T15:31:48.342Z,70.80
2023-01-21T15:34:53.636Z,70.72
2023-01-21T15:38:02.752Z,71.03
2023-01-21T15:41:09.759Z,70.95
2023-01-21T15:44:26.607Z,71.61
2023-01-21T15:47:50.773Z,71.22
2023-01-21T15:50:57.698Z,71.16
2023-01-21T15:54:15.872Z,70.45
2023-01-21T15:57:33.686Z,70.81
2023-01-21T16:00:39.249Z,70.40
2023-01-21T16:03:48.651Z,70.06
2023-01-21T16:07:02.941Z,69.87
2023-01-21T16:10:13.873Z,70.03
2023-01-21T16:13:19.668Z,69.99
2023-01-21T16:16:32.564Z,69.85
2023-01-21T16:19:40.084Z,69.70
2023-01-21T16:22:45.864Z,69.31
2023-01-21T16:25:49.781Z,69.09
2023-01-21T16:28:52.653Z,69.21
2023-01-21T16:31:59.972Z,69.56
2023-01-21T16:35:04.323Z,69.43
2023-01-21T16:38:06.922Z,68.92
2023-01-21T16:41:22.454Z,69.34
2023-01-21T16:44:26.964Z,68.99
2023-01-21T16:47:32.642Z,69.02
2023-01-21T16:50:36.973Z,69.08
2023-01-21T16:53:39.801Z,69.11
2023-01-21T16:56:48.379Z,69.12
2023-01-21T16:59:52.906Z,69.62
2023-01-21T17:02:55.832Z,69.32
2023-01-21T17:06:01.469Z,69.85
2023-01-21T17:09:05.994Z,70.58
2023-01-21T17:12:10.897Z,70.17
2023-01-21T17:15:18.600Z,70.35
2023-01-21T17:18:23.012Z,70.68
2023-01-21T17:21:33.944Z,71.20
2023-01-21T17:24:39.431Z,71.49
2023-01-21T17:27:43.934Z,71.33
2023-01-21T17:30:47.414Z,71.33
2023-01-21T17:34:06.415Z,71.06
2023-01-21T17:37:42.220Z,71.33
2023-01-21T17:40:46.842Z,70.88
2023-01-21T17:43:51.289Z,70.51
2023-01-21T17:46:55.841Z,70.73
2023-01-21T17:50:01.327Z,70.50
2023-01-21T17:53:07.378Z,70.22
2023-01-21T17:56:10.020Z,70.29
2023-01-21T17:59:27.381Z,69.75
2023-01-21T18:02:30.804Z,69.82
2023-01-21T18:05:33.721Z,69.99
2023-01-21T18:08:37.930Z,70.23
2023-01-21T18:11:40.493Z,69.98
2023-01-21T18:14:43.355Z,70.16
2023-01-21T18:17:47.889Z,70.16
2023-01-21T18:20:50.657Z,69.96
2023-01-21T18:23:54.786Z,70.56
2023-01-21T18:26:57.830Z,70.90
2023-01-21T18:30:01.765Z,71.38
2023-01-21T18:33:04.499Z,71.48
2023-01-21T18:36:10.639Z,72.34
2023-01-21T18:39:17.362Z,72.62
2023-01-21T18:42:24.076Z,73.40
2023-01-21T18:45:28.151Z,73.88
2023-01-21T18:48:33.747Z,74.79
2023-01-21T18:51:36.823Z,75.10
2023-01-21T18:54:40.749Z,74.83
2023-01-21T18:57:43.509Z,75.46
2023-01-21T19:00:46.365Z,75.34
2023-01-21T19:03:49.163Z,76.27
2023-01-21T19:06:55.572Z,75.77
2023-01-21T19:09:59.837Z,76.01
2023-01-21T19:13:03.011Z,76.56
2023-01-21T19:16:06.548Z,76.05
2023-01-21T19:19:12.004Z,76.18
2023-01-21T19:22:16.800Z,75.73
2023-01-21T19:25:22.114Z,75.58
2023-01-21T19:28:24.895Z,74.96
2023-01-21T19:31:28.055Z,75.15
2023-01-21T19:34:30.721Z,74.82
2023-01-21T19:37:33.789Z,75.18
2023-01-21T19:40:38.864Z,75.41
2023-01-21T19:43:42.149Z,75.24
2023-01-21T19:46:45.334Z,74.54
2023-01-21T19:49:48.309Z,74.52
2023-01-21T19:52:52.394Z,74.33
2023-01-21T19:55:56.800Z,74.03
2023-01-21T19:58:59.558Z,74.33
2023-01-21T20:02:02.436Z,74.71
2023-01-21T20:05:05.866Z,75.08
2023-01-21T20:08:11.590Z,74.45
2023-01-21T20:11:16.484Z,74.99
2023-01-21T20:14:19.159Z,74.47
2023-01-21T20:17:22.414Z,75.32
2023-01-21T20:20:26.585Z,74.73
2023-01-21T20:23:32.625Z,74.34
2023-01-21T20:26:37.205Z,73.95
2023-01-21T20:29:44.644Z,74.00
2023-01-21T20:32:52.681Z,74.18
2023-01-21T20:35:57.116Z,76.66
2023-01-21T20:38:59.898Z,76.29
2023-01-21T20:42:04.727Z,75.77
2023-01-21T20:45:09.235Z,75.65
2023-01-21T20:48:19.935Z,75.80
2023-01-21T20:51:23.036Z,76.28
2023-01-21T20:54:26.739Z,77.28
2023-01-21T20:57:31.278Z,76.80
2023-01-21T21:00:35.961Z,76.29
2023-01-21T21:03:38.746Z,76.65
2023-01-21T21:06:45.774Z,76.79
2023-01-21T21:09:48.447Z,77.14
2023-01-21T21:12:53.206Z,76.71
2023-01-21T21:15:56.026Z,77.08
2023-01-21T21:19:00.723Z,77.35
2023-01-21T21:22:05.318Z,77.27
2023-01-21T21:25:09.202Z,77.15
2023-01-21T21:28:13.878Z,78.22
2023-01-21T21:31:17.891Z,77.99
2023-01-21T21:34:23.936Z,77.74
2023-01-21T21:37:26.994Z,78.10
2023-01-21T21:40:30.479Z,77.67
2023-01-21T21:43:35.399Z,77.22
2023-01-21T21:46:56.455Z,77.49
2023-01-21T21:49:59.202Z,78.20
2023-01-21T21:53:02.016Z,77.23
2023-01-21T21:56:06.217Z,77.28
2023-01-21T21:59:12.033Z,77.28
2023-01-21T22:02:14.839Z,77.31
2023-01-21T22:05:17.975Z,77.14
2023-01-21T22:08:21.498Z,76.99
2023-01-21T22:11:24.502Z,76.96
2023-01-21T22:14:28.606Z,77.07
2023-01-21T22:17:31.344Z,76.73
2023-01-21T22:20:34.281Z,76.64
2023-01-21T22:23:38.799Z,76.51
2023-01-21T22:26:41.712Z,76.38
2023-01-21T22:29:46.015Z,76.46
2023-01-21T22:32:49.099Z,76.67
2023-01-21T22:35:51.828Z,77.38
2023-01-21T22:38:55.774Z,76.83
2023-01-21T22:42:00.678Z,77.71
2023-01-21T22:45:06.117Z,77.52
2023-01-21T22:48:08.993Z,77.14
2023-01-21T22:51:13.186Z,77.64
2023-01-21T22:54:15.939Z,77.47
2023-01-21T22:57:19.215Z,77.62
2023-01-21T23:00:37.183Z,77.67
2023-01-21T23:03:40.174Z,78.21
2023-01-21T23:06:45.541Z,77.51
2023-01-21T23:09:48.200Z,77.95
2023-01-21T23:12:51.411Z,78.12
2023-01-21T23:15:56.187Z,77.68
2023-01-21T23:18:59.155Z,77.55
2023-01-21T23:22:02.224Z,77.39
2023-01-21T23:25:05.241Z,77.22
2023-01-21T23:28:08.614Z,77.79
2023-01-21T23:31:15.219Z,78.19
2023-01-21T23:34:19.332Z,77.84
2023-01-21T23:37:22.317Z,77.94
2023-01-21T23:40:25.156Z,77.85
2023-01-21T23:43:28.917Z,77.82
2023-01-21T23:46:32.968Z,77.80
2023-01-21T23:49:36.018Z,77.43
2023-01-21T23:52:39.666Z,77.60
2023-01-21T23:55:42.352Z,77.69
2023-01-21T23:58:45.198Z,77.89
